Time;durP1;ratioP1;P1;durP2;ratioP2;P2;SDS_P1;SDS_P2;PMS_P1;PMS_P2;Temp;Humidity;BMP_temperature;BMP_pressure;BME280_temperature;BME280_humidity;BME280_pressure;Samples;Min_cycle;Max_cycle;Signal;HPM_P1;HPM_P2
2021/07/25 00:01:30;;;;;;;;;28.67;28.67;;;;;21.24;76.82;101312.91;5091589;28;8887;-72
2021/07/25 00:04:25;;;;;;;;;31.50;30.25;;;;;21.23;76.57;101311.25;5100758;28;8855;-72
2021/07/25 00:07:21;;;;;;;;;29.00;28.75;;;;;21.32;76.34;101316.63;5105957;28;8822;-72
2021/07/25 00:10:17;;;;;;;;;31.75;30.75;;;;;21.21;76.52;101310.84;5090745;28;8814;-72
2021/07/25 00:13:16;;;;;;;;;33.25;31.50;;;;;21.10;77.27;101312.78;5110231;28;8865;-72
2021/07/25 00:16:11;;;;;;;;;30.00;29.75;;;;;21.13;77.25;101303.53;5111748;28;8944;-72
2021/07/25 00:19:11;;;;;;;;;32.00;30.75;;;;;21.12;77.04;101313.19;5108881;28;8833;-72
2021/07/25 00:22:07;;;;;;;;;32.50;30.25;;;;;21.03;77.48;101307.09;5101142;28;8825;-72
2021/07/25 00:25:18;;;;;;;;;34.00;30.25;;;;;21.07;77.13;101305.09;5100761;28;8931;-72
2021/07/25 00:28:18;;;;;;;;;27.75;27.75;;;;;21.02;77.37;101317.53;5111316;28;8840;-73
2021/07/25 00:30:46;;;;;;;;;30.00;27.50;;;;;21.01;77.46;101309.44;5112081;28;8910;-73
2021/07/25 00:33:42;;;;;;;;;31.50;30.50;;;;;21.05;76.78;101313.94;5102624;28;8823;-73
2021/07/25 00:36:38;;;;;;;;;24.00;24.00;;;;;20.97;77.28;101311.44;5111507;28;8929;-73
2021/07/25 00:39:33;;;;;;;;;33.00;31.25;;;;;20.95;77.36;101314.63;5111580;28;8823;-73
2021/07/25 00:42:39;;;;;;;;;34.00;31.50;;;;;20.97;77.39;101322.69;5111337;28;8842;-73
2021/07/25 00:45:35;;;;;;;;;29.25;28.50;;;;;20.83;77.84;101314.91;5102305;28;8825;-73
2021/07/25 00:48:30;;;;;;;;;28.75;28.75;;;;;20.89;77.46;101316.19;5091252;28;8812;-72
2021/07/25 00:51:27;;;;;;;;;29.75;29.75;;;;;20.81;77.64;101320.13;5113286;28;9601;-73
2021/07/25 00:54:24;;;;;;;;;30.00;30.00;;;;;20.71;78.44;101307.56;5114998;28;8919;-72
2021/07/25 00:57:19;;;;;;;;;32.75;29.75;;;;;20.66;78.86;101309.91;5114970;28;8837;-73
2021/07/25 01:00:16;;;;;;;;;27.00;26.00;;;;;20.66;78.58;101316.34;5113687;28;8845;-73
2021/07/25 01:03:33;;;;;;;;;29.50;29.00;;;;;20.62;78.51;101311.88;5114593;28;8826;-73
2021/07/25 01:06:53;;;;;;;;;28.00;26.50;;;;;20.50;78.72;101313.75;5107253;28;9558;-73
2021/07/25 01:10:07;;;;;;;;;29.00;29.00;;;;;20.57;78.63;101320.66;5099529;28;8931;-73
2021/07/25 01:13:17;;;;;;;;;34.50;30.00;;;;;20.63;78.30;101321.94;5093309;28;9576;-73
2021/07/25 01:16:12;;;;;;;;;28.75;28.75;;;;;20.65;77.94;101320.34;5111061;28;8841;-73
2021/07/25 01:19:08;;;;;;;;;29.50;29.25;;;;;20.48;78.74;101323.78;5112409;28;8815;-72
2021/07/25 01:22:04;;;;;;;;;27.25;27.25;;;;;20.44;78.56;101315.28;5114554;28;8948;-73
2021/07/25 01:25:00;;;;;;;;;27.75;27.75;;;;;20.39;78.43;101317.59;5101227;28;8956;-73
2021/07/25 01:28:12;;;;;;;;;27.00;27.00;;;;;20.44;78.40;101323.72;5107365;28;8900;-72
2021/07/25 01:31:21;;;;;;;;;29.00;29.00;;;;;20.41;78.72;101321.66;5110077;28;8821;-72
2021/07/25 01:34:16;;;;;;;;;31.50;29.75;;;;;20.32;78.74;101320.31;5107370;28;8834;-72
2021/07/25 01:37:12;;;;;;;;;30.25;28.75;;;;;20.33;79.01;101327.56;5095368;28;8826;-72
2021/07/25 01:40:12;;;;;;;;;25.25;25.25;;;;;20.41;78.31;101323.66;5094447;28;8852;-72
2021/07/25 01:43:13;;;;;;;;;28.75;28.50;;;;;20.36;78.46;101323.97;5114801;28;8827;-73
2021/07/25 01:46:09;;;;;;;;;30.50;30.25;;;;;20.17;78.69;101328.56;5114159;28;8909;-72
2021/07/25 01:49:05;;;;;;;;;29.75;29.75;;;;;20.13;79.29;101326.91;5113783;28;8901;-73
2021/07/25 01:52:00;;;;;;;;;28.00;28.00;;;;;20.06;79.95;101333.22;5113730;28;8822;-73
2021/07/25 01:54:56;;;;;;;;;26.50;26.50;;;;;19.92;80.36;101342.25;5114015;28;8825;-73
2021/07/25 01:57:52;;;;;;;;;27.75;27.75;;;;;20.24;78.68;101337.09;5113550;28;8914;-73
2021/07/25 02:00:48;;;;;;;;;28.50;28.25;;;;;20.14;78.88;101331.31;5113201;28;9584;-73
2021/07/25 02:03:44;;;;;;;;;29.50;29.00;;;;;20.19;78.87;101339.41;5110086;28;8927;-72
2021/07/25 02:06:39;;;;;;;;;31.75;30.00;;;;;20.10;79.62;101341.72;5111180;28;8823;-73
2021/07/25 02:09:35;;;;;;;;;27.00;27.00;;;;;20.14;79.13;101337.75;5113906;28;8875;-73
2021/07/25 02:12:31;;;;;;;;;29.75;28.75;;;;;20.11;79.20;101343.31;5113691;28;8825;-73
2021/07/25 02:15:26;;;;;;;;;32.00;29.25;;;;;20.14;79.47;101345.34;5113390;28;8825;-73
2021/07/25 02:18:22;;;;;;;;;28.50;27.75;;;;;20.16;79.37;101351.41;5105734;28;8852;-73
2021/07/25 02:21:17;;;;;;;;;26.25;25.00;;;;;20.17;78.97;101348.22;5112930;28;8899;-73
2021/07/25 02:24:13;;;;;;;;;28.75;28.25;;;;;20.08;79.58;101347.69;5113009;28;8854;-73
2021/07/25 02:27:09;;;;;;;;;28.75;28.75;;;;;20.05;79.34;101342.84;5113055;28;8892;-73
2021/07/25 02:30:05;;;;;;;;;35.25;30.50;;;;;20.29;78.49;101355.59;5113596;28;8826;-73
2021/07/25 02:33:00;;;;;;;;;29.75;28.50;;;;;20.06;79.15;101355.69;5112838;28;8825;-73
2021/07/25 02:35:59;;;;;;;;;28.75;28.50;;;;;20.08;79.17;101358.91;5108218;28;8821;-73
2021/07/25 02:38:54;;;;;;;;;32.00;31.00;;;;;20.25;78.24;101363.19;5108154;28;8837;-73
2021/07/25 02:41:50;;;;;;;;;28.25;28.00;;;;;20.23;78.36;101369.16;5108913;28;8833;-73
2021/07/25 02:44:45;;;;;;;;;31.75;30.75;;;;;20.13;78.83;101363.41;5113180;28;8830;-73
2021/07/25 02:47:41;;;;;;;;;27.25;25.75;;;;;20.29;78.36;101361.22;5112570;28;8817;-73
2021/07/25 02:50:37;;;;;;;;;30.75;30.00;;;;;20.32;77.96;101371.69;5107425;28;8819;-73
2021/07/25 02:53:32;;;;;;;;;31.75;30.50;;;;;20.36;78.12;101374.53;5112936;28;8870;-73
2021/07/25 02:56:28;;;;;;;;;30.25;30.00;;;;;20.29;78.65;101380.88;5108988;28;8834;-73
2021/07/25 02:59:23;;;;;;;;;32.75;31.75;;;;;20.40;78.09;101375.41;5112545;28;8829;-73
2021/07/25 03:02:19;;;;;;;;;33.67;32.00;;;;;20.30;78.46;101382.50;5106894;28;8814;-73
2021/07/25 03:05:15;;;;;;;;;20.50;20.50;;;;;20.30;78.77;101384.50;5112666;28;9538;-73
2021/07/25 03:08:10;;;;;;;;;31.00;29.25;;;;;20.40;78.49;101383.84;5093434;28;9559;-73
2021/07/25 03:11:08;;;;;;;;;38.50;34.75;;;;;20.37;78.56;101385.41;5109830;28;8843;-73
2021/07/25 03:14:03;;;;;;;;;43.00;36.50;;;;;20.47;78.38;101392.38;5111243;28;9551;-73
2021/07/25 03:16:59;;;;;;;;;38.00;34.33;;;;;20.44;78.71;101384.72;5112018;28;8822;-72
2021/07/25 03:19:54;;;;;;;;;38.75;34.25;;;;;20.47;78.70;101389.56;5111958;28;8916;-73
2021/07/25 03:22:50;;;;;;;;;35.67;33.33;;;;;20.54;78.50;101392.47;5107937;28;8822;-73
2021/07/25 03:25:45;;;;;;;;;38.67;34.00;;;;;20.60;78.42;101387.31;5093453;28;8975;-73
2021/07/25 03:28:41;;;;;;;;;35.75;33.00;;;;;20.64;78.55;101391.00;5112466;28;8895;-72
2021/07/25 03:31:37;;;;;;;;;33.00;32.00;;;;;20.72;78.33;101395.50;5107797;28;8825;-73
2021/07/25 03:34:33;;;;;;;;;40.25;35.50;;;;;20.77;77.97;101393.16;5103895;28;8918;-73
2021/07/25 03:37:28;;;;;;;;;42.75;36.50;;;;;20.83;77.94;101394.44;5112035;28;8975;-72
2021/07/25 03:40:24;;;;;;;;;47.00;39.33;;;;;20.92;77.78;101396.13;5105114;28;8819;-73
2021/07/25 03:43:20;;;;;;;;;42.67;36.00;;;;;20.99;77.56;101408.25;5111894;28;9167;-73
2021/07/25 03:46:16;;;;;;;;;45.33;38.33;;;;;21.07;77.43;101400.72;5093781;28;8987;-73
2021/07/25 03:49:13;;;;;;;;;39.33;35.33;;;;;21.24;76.77;101408.53;5111955;28;8987;-73
2021/07/25 03:52:10;;;;;;;;;42.75;37.50;;;;;21.39;75.97;101406.69;5111529;28;9700;-73
2021/07/25 03:55:08;;;;;;;;;39.50;34.75;;;;;21.54;75.75;101413.25;5105118;28;8818;-73
2021/07/25 03:58:04;;;;;;;;;39.50;35.25;;;;;21.63;75.78;101430.66;5091990;28;8845;-73
2021/07/25 04:00:59;;;;;;;;;36.50;33.50;;;;;21.65;75.78;101419.78;5111500;28;8810;-73
2021/07/25 04:03:55;;;;;;;;;40.00;35.75;;;;;21.87;75.83;101409.53;5111336;28;8840;-73
2021/07/25 04:06:50;;;;;;;;;40.50;36.00;;;;;21.99;74.06;101416.84;5107171;28;8927;-73
2021/07/25 04:09:46;;;;;;;;;36.25;33.25;;;;;22.05;74.19;101415.28;5111441;28;8834;-73
2021/07/25 04:12:42;;;;;;;;;38.50;34.25;;;;;22.17;74.79;101415.00;5108879;28;8865;-73
2021/07/25 04:15:39;;;;;;;;;35.75;32.50;;;;;22.24;74.20;101415.03;5111655;28;8829;-73
2021/07/25 04:18:35;;;;;;;;;40.00;35.50;;;;;22.28;74.13;101418.66;5104177;28;8837;-73
2021/07/25 04:21:31;;;;;;;;;43.50;37.50;;;;;22.45;73.42;101417.16;5090201;28;8813;-73
2021/07/25 04:24:26;;;;;;;;;39.75;35.00;;;;;22.57;73.71;101424.47;5112377;28;8851;-73
2021/07/25 04:27:22;;;;;;;;;41.75;36.50;;;;;22.59;73.30;101428.50;5116041;28;9571;-73
2021/07/25 04:30:18;;;;;;;;;42.25;36.25;;;;;22.72;72.86;101432.59;5115992;28;8842;-73
2021/07/25 04:33:19;;;;;;;;;42.50;37.25;;;;;22.85;72.59;101430.25;5115477;28;8826;-73
2021/07/25 04:36:24;;;;;;;;;40.50;36.00;;;;;22.91;72.39;101439.94;5115366;28;8833;-73
2021/07/25 04:39:20;;;;;;;;;38.25;34.75;;;;;23.02;72.27;101432.31;5114813;28;9570;-73
2021/07/25 04:42:23;;;;;;;;;39.00;35.25;;;;;23.12;73.01;101438.41;5115034;28;8909;-72
2021/07/25 04:45:48;;;;;;;;;34.50;32.25;;;;;23.25;71.85;101442.47;5103941;28;8937;-72
2021/07/25 04:49:01;;;;;;;;;43.75;37.25;;;;;23.46;70.60;101441.66;5106893;28;8819;-73
2021/07/25 04:51:58;;;;;;;;;40.75;36.25;;;;;23.61;69.37;101442.53;5115150;28;8914;-73
2021/07/25 04:54:59;;;;;;;;;42.00;36.00;;;;;23.74;69.58;101443.75;5107279;28;8801;-73
2021/07/25 04:58:03;;;;;;;;;41.75;35.75;;;;;23.87;69.07;101444.16;5115121;28;8929;-73
2021/07/25 05:01:02;;;;;;;;;42.75;36.25;;;;;24.04;68.50;101446.97;5114519;28;8827;-73
2021/07/25 05:04:02;;;;;;;;;47.50;39.25;;;;;24.27;66.53;101452.19;5114747;28;8829;-73
2021/07/25 05:06:58;;;;;;;;;47.00;39.50;;;;;24.42;66.51;101446.53;5114548;28;9571;-73
2021/07/25 05:09:54;;;;;;;;;42.75;37.25;;;;;24.52;66.82;101449.31;5114711;28;8837;-73
2021/07/25 05:13:03;;;;;;;;;44.50;37.50;;;;;24.68;65.57;101449.66;5113655;28;8902;-73
2021/07/25 05:16:03;;;;;;;;;44.25;36.75;;;;;24.83;65.10;101446.78;5108030;28;8835;-72
2021/07/25 05:19:17;;;;;;;;;46.25;38.00;;;;;24.92;63.56;101455.63;5097789;28;8845;-72
2021/07/25 05:22:31;;;;;;;;;41.75;36.50;;;;;25.23;63.03;101453.91;5110573;28;8849;-72
2021/07/25 05:25:28;;;;;;;;;42.75;36.75;;;;;25.37;64.23;101450.16;5113216;28;8941;-73
2021/07/25 05:28:27;;;;;;;;;48.50;38.75;;;;;25.60;63.09;101453.22;5109669;28;8925;-73
2021/07/25 05:31:33;;;;;;;;;51.25;42.25;;;;;25.75;61.08;101460.41;5113800;28;8821;-74
2021/07/25 05:34:29;;;;;;;;;48.75;41.75;;;;;25.86;61.35;101465.22;5107130;28;8884;-73
2021/07/25 05:37:24;;;;;;;;;50.50;43.00;;;;;26.01;61.38;101463.88;5105210;28;8825;-73
2021/07/25 05:40:20;;;;;;;;;62.00;50.75;;;;;26.21;59.67;101464.88;5113396;28;8918;-73
2021/07/25 05:43:16;;;;;;;;;57.00;46.25;;;;;26.35;58.98;101469.59;5107122;28;8829;-73
2021/07/25 05:46:12;;;;;;;;;66.00;55.00;;;;;26.53;57.92;101469.44;5107016;28;8811;-74
2021/07/25 05:49:08;;;;;;;;;68.67;57.00;;;;;26.67;55.52;101471.31;5113343;28;8902;-73
2021/07/25 05:52:03;;;;;;;;;65.67;52.00;;;;;26.88;54.83;101471.03;5111363;28;9058;-73
2021/07/25 05:54:59;;;;;;;;;49.00;41.75;;;;;26.92;55.70;101482.38;5106804;28;8980;-73
2021/07/25 05:57:55;;;;;;;;;56.25;45.25;;;;;27.11;53.64;101481.72;5112861;27;8872;-73
2021/07/25 06:00:52;;;;;;;;;49.75;42.25;;;;;27.17;53.71;101474.34;5106571;28;8971;-73
2021/07/25 06:03:49;;;;;;;;;59.00;48.25;;;;;27.40;51.52;101476.47;5107628;28;8823;-73
2021/07/25 06:06:45;;;;;;;;;57.50;44.75;;;;;27.50;51.80;101475.47;5102340;28;8817;-74
2021/07/25 06:09:40;;;;;;;;;50.75;42.00;;;;;27.70;50.54;101476.44;5109707;28;8822;-73
2021/07/25 06:12:37;;;;;;;;;53.50;44.00;;;;;27.91;51.91;101471.59;5111748;28;8831;-73
2021/07/25 06:15:34;;;;;;;;;58.25;48.50;;;;;28.13;48.75;101472.03;5106652;28;8839;-74
2021/07/25 06:18:29;;;;;;;;;57.25;47.50;;;;;28.09;48.55;101483.50;5101905;28;8920;-73
2021/07/25 06:21:27;;;;;;;;;49.00;41.75;;;;;28.36;47.16;101482.63;5111192;28;8922;-73
2021/07/25 06:24:22;;;;;;;;;48.25;40.00;;;;;28.57;46.30;101478.56;5110207;27;8898;-72
2021/07/25 06:27:18;;;;;;;;;34.60;32.00;;;;;28.65;46.27;101485.72;5113405;27;8813;-72
2021/07/25 06:30:14;;;;;;;;;24.20;24.20;;;;;28.72;46.15;101477.03;5112881;28;8877;-72
2021/07/25 06:33:10;;;;;;;;;20.00;20.00;;;;;28.70;43.29;101482.38;5100242;28;8819;-72
2021/07/25 06:36:10;;;;;;;;;23.00;21.80;;;;;28.78;45.07;101484.63;5113886;28;8849;-72
2021/07/25 06:39:07;;;;;;;;;17.80;17.80;;;;;28.98;44.91;101486.69;5113834;28;8938;-72
2021/07/25 06:42:03;;;;;;;;;15.20;13.60;;;;;29.24;44.12;101482.88;5113652;28;8835;-72
2021/07/25 06:44:58;;;;;;;;;16.60;16.60;;;;;29.14;42.87;101489.63;5114013;28;8849;-72
2021/07/25 06:47:54;;;;;;;;;16.20;16.20;;;;;29.17;42.75;101488.72;5113605;28;8822;-72
2021/07/25 06:50:51;;;;;;;;;14.60;14.60;;;;;29.22;43.14;101490.28;5107916;28;8846;-72
2021/07/25 06:53:47;;;;;;;;;17.80;17.80;;;;;29.42;43.17;101488.16;5113538;28;8850;-72
2021/07/25 06:56:43;;;;;;;;;17.00;17.00;;;;;29.76;42.32;101492.69;5113575;28;8850;-72
2021/07/25 06:59:39;;;;;;;;;20.40;20.40;;;;;29.53;41.88;101493.66;5113664;28;9753;-73
2021/07/25 07:02:46;;;;;;;;;20.00;20.00;;;;;29.50;42.52;101492.47;5113118;28;8851;-73
2021/07/25 07:05:42;;;;;;;;;16.40;16.20;;;;;29.88;42.48;101491.97;5099970;28;8839;-73
2021/07/25 07:08:37;;;;;;;;;21.40;21.40;;;;;30.06;41.74;101486.63;5113292;28;8879;-73
2021/07/25 07:11:33;;;;;;;;;16.40;16.40;;;;;30.09;42.00;101490.66;5113035;28;8823;-73
2021/07/25 07:14:28;;;;;;;;;18.80;18.80;;;;;30.33;41.78;101494.09;5113049;28;8831;-73
2021/07/25 07:17:24;;;;;;;;;17.40;17.40;;;;;30.23;40.79;101495.19;5113214;28;8915;-74
2021/07/25 07:20:20;;;;;;;;;15.40;15.40;;;;;30.10;41.62;101493.06;5113368;28;8815;-74
2021/07/25 07:23:18;;;;;;;;;15.00;15.00;;;;;29.88;39.83;101483.41;5113152;28;8846;-73
2021/07/25 07:26:13;;;;;;;;;12.40;12.40;;;;;29.98;41.10;101479.50;5113184;28;8834;-74
2021/07/25 07:29:09;;;;;;;;;14.60;14.40;;;;;30.27;40.48;101487.34;5113186;28;8822;-73
2021/07/25 07:32:05;;;;;;;;;18.60;18.60;;;;;30.72;39.83;101488.13;5112784;28;8945;-73
2021/07/25 07:35:00;;;;;;;;;16.40;16.40;;;;;30.91;40.55;101483.53;5112815;28;8815;-73
2021/07/25 07:37:56;;;;;;;;;16.40;16.40;;;;;31.06;39.84;101489.63;5112866;28;8827;-73
2021/07/25 07:40:51;;;;;;;;;19.00;19.00;;;;;31.13;39.55;101482.84;5112531;28;8818;-73
2021/07/25 07:43:47;;;;;;;;;17.40;17.40;;;;;31.29;37.74;101484.88;5112640;28;8818;-73
2021/07/25 07:46:42;;;;;;;;;17.00;16.40;;;;;31.34;37.47;101487.16;5112568;28;8830;-74
2021/07/25 07:49:38;;;;;;;;;11.60;11.60;;;;;31.46;36.53;101487.16;5112801;28;9614;-72
2021/07/25 07:52:34;;;;;;;;;8.60;8.60;;;;;31.83;34.55;101481.13;5112610;28;8838;-74
2021/07/25 07:55:29;;;;;;;;;13.40;13.40;;;;;31.82;36.34;101483.16;5112452;28;8845;-74
2021/07/25 07:58:25;;;;;;;;;10.00;10.00;;;;;31.81;34.63;101485.22;5098977;28;8830;-73
2021/07/25 08:01:20;;;;;;;;;15.40;15.40;;;;;31.74;36.43;101484.63;5112123;28;8815;-73
2021/07/25 08:04:16;;;;;;;;;6.40;6.40;;;;;31.93;32.78;101485.66;5113077;28;8837;-74
2021/07/25 08:07:11;;;;;;;;;6.00;6.00;;;;;32.01;31.33;101493.53;5112613;28;8827;-72
2021/07/25 08:10:08;;;;;;;;;4.00;4.00;;;;;32.14;29.72;101487.00;5112588;28;8831;-72
2021/07/25 08:13:04;;;;;;;;;7.00;7.00;;;;;31.85;30.68;101492.88;5112697;28;8843;-72
2021/07/25 08:15:59;;;;;;;;;3.00;3.00;;;;;31.87;30.24;101487.50;5099102;28;8839;-73
2021/07/25 08:18:55;;;;;;;;;6.60;6.60;;;;;31.86;32.04;101494.50;5112783;28;8884;-73
2021/07/25 08:21:51;;;;;;;;;9.80;9.80;;;;;31.92;33.32;101493.44;5094943;28;8841;-72
2021/07/25 08:24:46;;;;;;;;;8.20;8.20;;;;;32.08;33.59;101501.88;5106650;28;8928;-71
2021/07/25 08:27:42;;;;;;;;;13.80;13.80;;;;;31.95;34.10;101497.44;5095725;28;8853;-72
2021/07/25 08:30:38;;;;;;;;;10.20;10.20;;;;;32.24;33.01;101491.53;5098983;28;8904;-73
2021/07/25 08:33:34;;;;;;;;;10.00;10.00;;;;;32.59;32.23;101500.97;5108463;28;8850;-72
2021/07/25 08:36:29;;;;;;;;;8.80;8.80;;;;;32.85;29.80;101498.78;5089115;28;8851;-73
2021/07/25 08:38:57;;;;;;;;;10.40;10.40;;;;;32.84;31.37;101492.22;5108135;28;8826;-72
2021/07/25 08:41:56;;;;;;;;;7.00;7.00;;;;;32.45;31.92;101495.75;5111465;28;9030;-72
2021/07/25 08:44:56;;;;;;;;;10.80;10.80;;;;;32.81;30.26;101489.50;5106912;28;8818;-72
2021/07/25 08:47:56;;;;;;;;;10.40;10.40;;;;;32.89;29.40;101483.06;5110155;28;8834;-72
2021/07/25 08:51:04;;;;;;;;;7.80;7.80;;;;;33.12;31.21;101486.69;5110305;28;8852;-72
2021/07/25 08:54:08;;;;;;;;;7.60;7.60;;;;;33.00;30.48;101482.66;5106810;28;8931;-72
2021/07/25 08:57:09;;;;;;;;;9.60;8.20;;;;;32.95;30.72;101483.25;5106910;28;8841;-72
2021/07/25 09:00:07;;;;;;;;;9.00;9.00;;;;;32.90;32.02;101486.75;5094449;27;8890;-72
2021/07/25 09:03:07;;;;;;;;;8.60;8.60;;;;;33.22;29.79;101474.03;5090082;28;8815;-70
2021/07/25 09:06:03;;;;;;;;;7.60;7.60;;;;;33.46;28.19;101478.00;5111702;28;8848;-72
2021/07/25 09:08:59;;;;;;;;;7.00;7.00;;;;;33.70;29.10;101486.84;5105761;28;8874;-71
2021/07/25 09:11:54;;;;;;;;;6.00;6.00;;;;;34.07;27.45;101474.69;5096814;28;8834;-71
2021/07/25 09:14:56;;;;;;;;;9.80;9.60;;;;;34.14;27.96;101480.91;5106205;28;8845;-72
2021/07/25 09:17:55;;;;;;;;;7.60;7.60;;;;;34.17;26.97;101479.94;5108989;28;8821;-72
2021/07/25 09:20:50;;;;;;;;;7.60;7.60;;;;;34.20;28.44;101476.13;5110050;28;8910;-72
2021/07/25 09:23:46;;;;;;;;;5.60;5.60;;;;;34.22;26.71;101470.72;5106421;28;8821;-73
2021/07/25 09:27:05;;;;;;;;;10.00;10.00;;;;;34.35;27.62;101482.03;5101965;28;8852;-72
2021/07/25 09:30:18;;;;;;;;;8.60;8.60;;;;;34.24;25.62;101475.97;5111625;28;8807;-73
2021/07/25 09:33:32;;;;;;;;;6.60;6.60;;;;;34.45;26.28;101477.94;5105661;28;8851;-73
2021/07/25 09:36:29;;;;;;;;;8.40;8.40;;;;;34.34;27.08;101474.69;5097741;28;9563;-72
2021/07/25 09:39:37;;;;;;;;;7.40;7.40;;;;;34.54;26.36;101469.31;5113546;28;8915;-73
2021/07/25 09:42:32;;;;;;;;;6.20;6.20;;;;;34.69;27.33;101475.19;5088011;28;8991;-72
2021/07/25 09:45:28;;;;;;;;;11.00;11.00;;;;;34.83;25.84;101468.78;5097744;28;8843;-72
2021/07/25 09:48:33;;;;;;;;;8.40;8.40;;;;;34.20;27.02;101467.53;5110638;28;8857;-73
2021/07/25 09:51:30;;;;;;;;;6.00;6.00;;;;;34.46;28.43;101470.91;5109921;28;8911;-72
2021/07/25 09:54:27;;;;;;;;;7.00;7.00;;;;;34.37;27.27;101472.97;5104879;28;8859;-73
2021/07/25 09:57:25;;;;;;;;;8.60;8.60;;;;;34.18;27.19;101467.19;5112632;28;8826;-73
2021/07/25 10:00:21;;;;;;;;;7.00;7.00;;;;;34.23;26.51;101468.63;5093592;28;8855;-72
2021/07/25 10:03:21;;;;;;;;;6.00;6.00;;;;;34.63;26.21;101471.38;5105208;28;8849;-72
2021/07/25 10:06:22;;;;;;;;;5.60;5.60;;;;;34.44;25.89;101469.78;5113833;28;8837;-71
2021/07/25 10:09:19;;;;;;;;;7.00;7.00;;;;;34.36;26.88;101474.22;5114738;28;9664;-72
2021/07/25 10:12:15;;;;;;;;;7.40;7.40;;;;;34.24;26.50;101461.63;5109644;28;8822;-73
2021/07/25 10:15:16;;;;;;;;;8.00;8.00;;;;;34.71;25.65;101468.97;5098422;28;8857;-72
2021/07/25 10:18:12;;;;;;;;;6.40;6.40;;;;;34.91;26.45;101463.53;5091576;28;8857;-73
2021/07/25 10:21:08;;;;;;;;;7.60;7.60;;;;;34.79;25.89;101473.09;5112776;28;8898;-72
2021/07/25 10:24:04;;;;;;;;;7.40;7.40;;;;;34.94;27.42;101474.06;5111625;28;8908;-72
2021/07/25 10:27:01;;;;;;;;;10.80;10.80;;;;;34.99;26.27;101466.88;5086790;28;8852;-72
2021/07/25 10:30:07;;;;;;;;;8.60;8.60;;;;;34.48;26.67;101447.44;5110353;28;9588;-72
2021/07/25 10:33:04;;;;;;;;;9.00;9.00;;;;;35.01;26.67;101461.44;5112528;28;8850;-71
2021/07/25 10:36:02;;;;;;;;;11.20;11.20;;;;;34.85;27.21;101459.69;5110925;28;8818;-73
2021/07/25 10:38:58;;;;;;;;;14.00;14.00;;;;;35.37;26.56;101463.38;5112336;27;8855;-72
2021/07/25 10:41:58;;;;;;;;;16.20;16.20;;;;;34.85;27.61;101456.81;5097490;28;8857;-72
2021/07/25 10:44:54;;;;;;;;;9.00;9.00;;;;;34.71;27.11;101458.28;5108923;28;8851;-73
2021/07/25 10:47:51;;;;;;;;;12.00;12.00;;;;;34.48;25.92;101462.59;5113006;28;8839;-71
2021/07/25 10:51:10;;;;;;;;;14.20;14.20;;;;;34.42;28.39;101458.75;5100369;28;8868;-71
2021/07/25 10:54:33;;;;;;;;;11.40;11.40;;;;;34.76;28.33;101460.50;5111525;28;8833;-71
2021/07/25 10:57:56;;;;;;;;;8.40;8.40;;;;;35.05;27.23;101462.88;5105595;28;8829;-72
2021/07/25 11:00:54;;;;;;;;;8.80;8.80;;;;;35.32;25.48;101461.16;5107231;28;8875;-71
2021/07/25 11:03:50;;;;;;;;;9.20;7.20;;;;;35.20;26.92;101462.97;5107096;28;8919;-71
2021/07/25 11:06:45;;;;;;;;;8.00;8.00;;;;;35.05;26.55;101456.31;5112818;28;8829;-72
2021/07/25 11:09:54;;;;;;;;;10.00;10.00;;;;;34.88;26.11;101455.84;5108905;28;8818;-73
2021/07/25 11:12:54;;;;;;;;;9.80;9.80;;;;;34.05;25.97;101454.25;5099985;28;8937;-72
2021/07/25 11:15:50;;;;;;;;;6.60;6.60;;;;;33.88;27.30;101460.25;5113142;28;8827;-72
2021/07/25 11:18:46;;;;;;;;;10.20;10.20;;;;;33.79;26.63;101465.97;5113127;28;9584;-72
2021/07/25 11:21:47;;;;;;;;;7.60;7.60;;;;;33.84;26.48;101458.81;5112616;28;8845;-74
2021/07/25 11:24:47;;;;;;;;;8.00;8.00;;;;;34.39;25.15;101456.84;5109834;28;8833;-72
2021/07/25 11:27:47;;;;;;;;;9.40;9.40;;;;;34.83;25.33;101459.38;5113172;28;8822;-73
2021/07/25 11:30:51;;;;;;;;;7.40;7.40;;;;;34.58;26.95;101454.75;5112697;28;8884;-73
2021/07/25 11:33:50;;;;;;;;;11.60;11.60;;;;;34.96;27.62;101462.06;5091936;28;8916;-72
2021/07/25 11:54:34;;;;;;;;;13.60;13.60;;;;;32.59;29.17;101458.00;5089498;28;8840;-72
2021/07/25 11:57:30;;;;;;;;;11.60;11.60;;;;;32.48;30.01;101454.72;5085326;28;8829;-73
2021/07/25 12:00:25;;;;;;;;;11.20;11.20;;;;;33.32;29.28;101451.94;5102318;28;8842;-72
2021/07/25 12:03:27;;;;;;;;;10.80;10.80;;;;;33.67;29.32;101441.09;5092326;28;8828;-72
2021/07/25 12:06:23;;;;;;;;;13.20;13.20;;;;;33.79;28.06;101445.09;5107564;28;8845;-73
2021/07/25 12:09:18;;;;;;;;;16.80;16.80;;;;;33.46;29.21;101449.31;5101554;28;8888;-73
2021/07/25 12:12:20;;;;;;;;;12.40;12.40;;;;;34.01;29.04;101449.47;5095285;28;8924;-73
2021/07/25 12:15:18;;;;;;;;;11.00;11.00;;;;;33.89;27.93;101443.84;5100917;28;8821;-73
2021/07/25 12:18:27;;;;;;;;;12.00;11.00;;;;;33.94;28.89;101444.03;5101809;28;8837;-72
2021/07/25 12:21:32;;;;;;;;;14.40;14.40;;;;;33.95;28.17;101444.84;5092344;28;8824;-73
2021/07/25 12:24:33;;;;;;;;;13.80;13.80;;;;;34.40;27.88;101441.22;5103298;28;8829;-72
2021/07/25 12:27:32;;;;;;;;;9.20;9.20;;;;;34.65;27.24;101436.41;5102248;28;8841;-73
2021/07/25 12:30:39;;;;;;;;;10.80;10.80;;;;;34.71;27.49;101434.50;5106304;28;8825;-73
2021/07/25 12:33:34;;;;;;;;;12.20;11.00;;;;;34.73;26.78;101434.78;5092678;28;8892;-74
2021/07/25 12:36:32;;;;;;;;;13.00;13.00;;;;;34.83;27.05;101430.66;5111640;28;8861;-73
2021/07/25 12:39:27;;;;;;;;;11.00;11.00;;;;;34.60;27.03;101434.22;5108897;28;8843;-73
2021/07/25 12:42:58;;;;;;;;;12.20;12.20;;;;;34.52;28.04;101436.59;5093066;28;8878;-73
2021/07/25 12:45:55;;;;;;;;;13.20;13.20;;;;;34.87;26.14;101437.00;5103767;28;8835;-73
2021/07/25 12:49:02;;;;;;;;;12.00;12.00;;;;;35.10;27.25;101432.66;5114695;28;8829;-72
2021/07/25 12:51:58;;;;;;;;;15.80;15.80;;;;;35.13;27.34;101433.78;5115637;28;8837;-73
2021/07/25 12:54:54;;;;;;;;;15.00;15.00;;;;;35.60;26.28;101435.97;5105942;27;8936;-72
2021/07/25 12:57:49;;;;;;;;;12.40;12.40;;;;;35.50;24.07;101432.34;5113617;28;8827;-72
2021/07/25 13:01:19;;;;;;;;;13.00;13.00;;;;;35.35;25.18;101431.44;5113022;28;8855;-72
2021/07/25 13:04:10;;;;;;;;;13.00;13.00;;;;;35.31;26.46;101436.56;5113739;28;8810;-72
2021/07/25 13:07:05;;;;;;;;;15.60;15.60;;;;;35.19;27.83;101435.50;5113271;28;8819;-73
2021/07/25 13:10:01;;;;;;;;;26.60;26.40;;;;;35.36;27.87;101430.97;5112294;28;8851;-72
2021/07/25 13:12:56;;;;;;;;;23.80;23.80;;;;;35.73;27.61;101429.97;5101638;28;8969;-72
2021/07/25 13:15:52;;;;;;;;;23.20;21.60;;;;;35.51;27.33;101431.09;5113623;28;8903;-72
2021/07/25 13:18:22;;;;;;;;;17.00;15.60;;;;;35.88;27.58;101431.63;5116909;28;8829;-72
2021/07/25 13:21:18;;;;;;;;;17.00;17.00;;;;;35.85;26.77;101434.69;5095929;28;8922;-72
2021/07/25 13:24:15;;;;;;;;;17.60;17.60;;;;;35.37;29.11;101441.19;5094990;28;9232;-72
2021/07/25 13:27:10;;;;;;;;;14.40;14.40;;;;;35.39;25.86;101432.06;5109667;27;8820;-73
2021/07/25 13:30:06;;;;;;;;;12.00;12.00;;;;;34.71;26.21;101435.28;5094703;28;8878;-73
2021/07/25 13:33:02;;;;;;;;;12.00;12.00;;;;;34.53;27.17;101433.25;5095413;28;8839;-72
2021/07/25 13:36:03;;;;;;;;;12.60;12.60;;;;;34.30;27.35;101433.88;5109240;28;8809;-73
2021/07/25 13:38:58;;;;;;;;;12.60;12.60;;;;;34.13;27.84;101435.47;5111656;28;8862;-72
2021/07/25 13:41:54;;;;;;;;;12.40;12.40;;;;;33.83;28.70;101429.34;5112508;28;8855;-73
2021/07/25 13:44:58;;;;;;;;;14.00;14.00;;;;;33.57;30.77;101428.78;5114410;28;8885;-72
2021/07/25 13:47:54;;;;;;;;;14.40;14.40;;;;;33.67;28.54;101418.94;5113934;28;8821;-74
2021/07/25 13:50:50;;;;;;;;;12.20;12.20;;;;;33.72;27.06;101429.00;5107581;27;9617;-73
2021/07/25 13:53:47;;;;;;;;;13.60;13.00;;;;;34.25;26.69;101428.75;5102936;28;8829;-73
2021/07/25 13:56:45;;;;;;;;;10.20;10.20;;;;;34.51;28.87;101427.19;5113949;28;8845;-70
2021/07/25 13:59:41;;;;;;;;;14.00;13.40;;;;;34.80;29.08;101437.34;5100240;28;8940;-71